createdAt,value
2022-12-31T00:01:31.240Z,84.46
2022-12-31T00:03:58.023Z,85.12
2022-12-31T00:06:35.404Z,85.36
2022-12-31T00:09:05.162Z,84.92
2022-12-31T00:11:33.164Z,85.40
2022-12-31T00:13:59.982Z,85.78
2022-12-31T00:16:32.148Z,85.82
2022-12-31T00:19:00.203Z,86.28
2022-12-31T00:21:28.908Z,85.76
2022-12-31T00:23:56.231Z,86.38
2022-12-31T00:26:25.546Z,86.52
2022-12-31T00:28:53.765Z,86.05
2022-12-31T00:31:31.925Z,86.36
2022-12-31T00:33:59.171Z,86.75
2022-12-31T00:36:36.912Z,86.25
2022-12-31T00:39:06.352Z,86.64
2022-12-31T00:41:33.141Z,86.71
2022-12-31T00:43:59.674Z,86.40
2022-12-31T00:46:26.831Z,86.67
2022-12-31T00:48:54.007Z,86.82
2022-12-31T00:51:23.193Z,86.60
2022-12-31T00:53:49.939Z,86.81
2022-12-31T00:56:19.360Z,87.43
2022-12-31T00:58:46.219Z,87.06
2022-12-31T01:01:19.959Z,87.14
2022-12-31T01:03:48.727Z,87.58
2022-12-31T01:06:15.468Z,87.49
2022-12-31T01:08:41.974Z,87.49
2022-12-31T01:11:11.634Z,87.60
2022-12-31T01:13:38.152Z,87.33
2022-12-31T01:16:13.073Z,87.83
2022-12-31T01:18:40.141Z,87.32
2022-12-31T01:21:09.675Z,87.48
2022-12-31T01:23:36.600Z,87.66
2022-12-31T01:26:05.124Z,87.21
2022-12-31T01:28:32.337Z,87.64
2022-12-31T01:30:59.448Z,87.60
2022-12-31T01:33:25.907Z,87.40
2022-12-31T01:35:52.367Z,87.23
2022-12-31T01:38:18.851Z,88.01
2022-12-31T01:40:45.348Z,87.04
2022-12-31T01:43:17.291Z,87.54
2022-12-31T01:45:46.926Z,87.86
2022-12-31T01:48:17.120Z,88.01
2022-12-31T01:50:46.896Z,87.34
2022-12-31T01:53:16.791Z,87.41
2022-12-31T01:55:50.455Z,87.89
2022-12-31T01:58:20.874Z,87.45
2022-12-31T02:00:48.871Z,87.57
2022-12-31T02:03:15.818Z,87.60
2022-12-31T02:06:10.242Z,88.00
2022-12-31T02:08:41.956Z,87.23
2022-12-31T02:11:29.499Z,87.45
2022-12-31T02:14:06.822Z,88.11
2022-12-31T02:16:42.590Z,87.84
2022-12-31T02:19:49.419Z,87.91
2022-12-31T02:22:37.677Z,87.59
2022-12-31T02:25:10.995Z,88.13
2022-12-31T02:27:47.399Z,88.07
2022-12-31T02:30:24.625Z,88.06
2022-12-31T02:33:03.649Z,88.67
2022-12-31T02:35:31.783Z,88.07
2022-12-31T02:38:16.319Z,88.76
2022-12-31T02:40:43.317Z,88.46
2022-12-31T02:43:09.764Z,88.56
2022-12-31T02:45:46.338Z,88.92
2022-12-31T02:48:43.537Z,88.87
2022-12-31T02:51:23.243Z,89.39
2022-12-31T02:54:19.297Z,89.02
2022-12-31T02:56:56.250Z,89.76
2022-12-31T02:59:37.363Z,89.82
2022-12-31T03:02:12.329Z,89.35
2022-12-31T03:04:40.652Z,89.70
2022-12-31T03:07:14.890Z,89.74
2022-12-31T03:09:41.343Z,89.36
2022-12-31T03:12:09.779Z,89.13
2022-12-31T03:14:36.622Z,89.21
2022-12-31T03:17:03.049Z,89.09
2022-12-31T03:19:29.505Z,89.69
2022-12-31T03:21:55.996Z,89.29
2022-12-31T03:24:23.399Z,89.90
2022-12-31T03:26:49.812Z,89.59
2022-12-31T03:29:16.282Z,90.02
2022-12-31T03:31:42.749Z,89.60
2022-12-31T03:34:09.186Z,89.91
2022-12-31T03:36:35.646Z,90.49
2022-12-31T03:39:02.121Z,90.29
2022-12-31T03:41:28.551Z,91.04
2022-12-31T03:43:55.058Z,90.49
2022-12-31T03:46:21.570Z,91.41
2022-12-31T03:48:48.024Z,91.15
2022-12-31T03:51:14.466Z,91.58
2022-12-31T03:53:40.957Z,91.42
2022-12-31T03:56:07.499Z,92.26
2022-12-31T03:58:33.946Z,91.43
2022-12-31T04:01:00.480Z,92.06
2022-12-31T04:03:27.123Z,91.84
2022-12-31T04:05:55.426Z,91.98
2022-12-31T04:08:21.955Z,92.66
2022-12-31T04:10:49.191Z,92.99
2022-12-31T04:13:15.762Z,92.57
2022-12-31T04:15:42.179Z,93.04
2022-12-31T04:18:08.619Z,93.57
2022-12-31T04:20:35.034Z,93.39
2022-12-31T04:23:01.473Z,93.83
2022-12-31T04:25:27.924Z,92.79
2022-12-31T04:27:54.422Z,93.67
2022-12-31T04:30:20.941Z,94.18
2022-12-31T04:32:47.409Z,93.60
2022-12-31T04:35:13.864Z,94.38
2022-12-31T04:37:40.347Z,94.45
2022-12-31T04:40:07.828Z,94.52
2022-12-31T04:42:35.534Z,95.08
2022-12-31T04:45:02.163Z,94.99
2022-12-31T04:47:28.637Z,95.01
2022-12-31T04:49:55.132Z,95.74
2022-12-31T04:52:21.977Z,95.60
2022-12-31T04:54:48.545Z,95.59
2022-12-31T04:57:15.048Z,95.50
2022-12-31T04:59:41.456Z,95.32
2022-12-31T05:02:08.269Z,95.85
2022-12-31T05:04:34.893Z,95.54
2022-12-31T05:07:01.354Z,95.95
2022-12-31T05:09:27.782Z,96.18
2022-12-31T05:11:54.404Z,95.92
2022-12-31T05:14:20.871Z,96.26
2022-12-31T05:16:47.488Z,96.22
2022-12-31T05:19:13.990Z,96.92
2022-12-31T05:21:40.439Z,96.47
2022-12-31T05:24:07.361Z,96.12
2022-12-31T05:26:33.877Z,96.39
2022-12-31T05:29:00.340Z,97.05
2022-12-31T05:31:26.998Z,97.25
2022-12-31T05:33:53.473Z,96.99
2022-12-31T05:36:19.940Z,96.96
2022-12-31T05:38:46.385Z,97.83
2022-12-31T05:41:12.836Z,97.43
2022-12-31T05:43:39.326Z,97.87
2022-12-31T05:46:05.843Z,98.17
2022-12-31T05:48:32.762Z,98.50
2022-12-31T05:50:59.259Z,97.86
2022-12-31T05:53:25.743Z,98.39
2022-12-31T05:55:52.251Z,98.47
2022-12-31T05:58:18.891Z,97.68
2022-12-31T06:00:45.413Z,97.88
2022-12-31T06:03:12.029Z,97.78
2022-12-31T06:05:42.955Z,98.18
2022-12-31T06:08:11.151Z,98.00
2022-12-31T06:10:38.932Z,97.34
2022-12-31T06:13:05.770Z,97.46
2022-12-31T06:15:32.272Z,97.28
2022-12-31T06:17:58.876Z,97.17
2022-12-31T06:20:25.344Z,97.01
2022-12-31T06:22:51.797Z,97.85
2022-12-31T06:25:18.308Z,97.51
2022-12-31T06:27:44.768Z,96.99
2022-12-31T06:30:11.764Z,97.37
2022-12-31T06:32:38.299Z,97.64
2022-12-31T06:35:05.385Z,97.23
2022-12-31T06:37:31.875Z,97.66
2022-12-31T06:39:59.591Z,97.40
2022-12-31T06:42:28.766Z,97.12
2022-12-31T06:44:55.215Z,97.57
2022-12-31T06:47:21.699Z,97.11
2022-12-31T06:49:48.124Z,97.66
2022-12-31T06:52:14.564Z,97.37
2022-12-31T06:54:41.385Z,97.21
2022-12-31T06:57:09.404Z,97.47
2022-12-31T06:59:36.379Z,96.97
2022-12-31T07:02:35.055Z,97.69
2022-12-31T07:05:29.600Z,96.77
2022-12-31T07:08:10.395Z,97.38
2022-12-31T07:10:45.854Z,96.66
2022-12-31T07:13:33.713Z,96.92
2022-12-31T07:16:03.192Z,95.95
2022-12-31T07:18:59.222Z,96.34
2022-12-31T07:21:35.397Z,96.02
2022-12-31T07:24:02.384Z,95.41
2022-12-31T07:26:44.348Z,95.21
2022-12-31T07:29:38.456Z,94.75
2022-12-31T07:32:13.620Z,94.76
2022-12-31T07:35:10.494Z,94.71
2022-12-31T07:37:49.236Z,94.68
2022-12-31T07:40:19.832Z,94.26
2022-12-31T07:43:08.532Z,94.12
2022-12-31T07:45:47.824Z,94.27
2022-12-31T07:48:24.393Z,93.70
2022-12-31T07:50:52.133Z,93.51
2022-12-31T07:53:18.894Z,93.41
2022-12-31T07:55:45.411Z,93.58
2022-12-31T07:58:36.829Z,93.17
2022-12-31T08:01:03.922Z,93.15
2022-12-31T08:04:07.103Z,93.31
2022-12-31T08:07:13.564Z,93.25
2022-12-31T08:09:57.152Z,93.00
2022-12-31T08:12:27.447Z,93.24
2022-12-31T08:14:54.071Z,93.17
2022-12-31T08:17:20.846Z,92.72
2022-12-31T08:19:47.678Z,92.66
2022-12-31T08:22:23.575Z,91.85
2022-12-31T08:25:08.436Z,92.39
2022-12-31T08:27:43.223Z,92.07
2022-12-31T08:30:13.380Z,91.47
2022-12-31T08:32:58.517Z,91.47
2022-12-31T08:35:59.312Z,91.14
2022-12-31T08:38:50.177Z,91.19
2022-12-31T08:41:31.499Z,90.95
2022-12-31T08:44:12.856Z,90.70
2022-12-31T08:46:58.286Z,90.78
2022-12-31T08:49:29.890Z,90.62
2022-12-31T08:51:56.887Z,90.56
2022-12-31T08:54:23.659Z,90.07
2022-12-31T08:57:00.100Z,89.91
2022-12-31T08:59:29.375Z,89.84
2022-12-31T09:02:08.089Z,89.60
2022-12-31T09:04:52.964Z,89.56
2022-12-31T09:07:29.238Z,89.32
2022-12-31T09:10:05.860Z,89.19
2022-12-31T09:12:38.235Z,88.66
2022-12-31T09:15:32.883Z,89.12
2022-12-31T09:17:59.604Z,89.09
2022-12-31T09:20:36.319Z,88.59
2022-12-31T09:23:09.003Z,89.08
2022-12-31T09:25:42.941Z,88.95
2022-12-31T09:28:27.361Z,89.32
2022-12-31T09:31:16.321Z,89.05
2022-12-31T09:33:50.440Z,89.77
2022-12-31T09:36:31.450Z,89.82
2022-12-31T09:39:12.671Z,89.51
2022-12-31T09:41:59.161Z,89.42
2022-12-31T09:44:53.425Z,89.99
2022-12-31T09:47:48.878Z,89.78
2022-12-31T09:50:20.829Z,89.61
2022-12-31T09:53:07.839Z,88.88
2022-12-31T09:55:45.252Z,89.58
2022-12-31T09:58:31.523Z,89.13
2022-12-31T10:01:07.334Z,89.14
2022-12-31T10:04:10.310Z,88.90
2022-12-31T10:07:00.543Z,88.95
2022-12-31T10:10:25.885Z,89.05
2022-12-31T10:13:07.403Z,89.42
2022-12-31T10:16:15.464Z,88.96
2022-12-31T10:18:44.704Z,89.51
2022-12-31T10:21:43.490Z,89.16
2022-12-31T10:24:44.036Z,89.27
2022-12-31T10:27:31.922Z,88.45
2022-12-31T10:30:19.956Z,88.81
2022-12-31T10:33:08.126Z,88.79
2022-12-31T10:35:50.577Z,88.46
2022-12-31T10:38:44.582Z,88.09
2022-12-31T10:41:17.012Z,88.29
2022-12-31T10:44:31.040Z,87.73
2022-12-31T10:47:31.632Z,87.93
2022-12-31T10:50:17.488Z,87.61
2022-12-31T10:53:12.478Z,87.61
2022-12-31T10:56:07.349Z,87.53
2022-12-31T10:59:09.414Z,87.87
2022-12-31T11:02:06.840Z,87.56
2022-12-31T11:04:47.109Z,87.45
2022-12-31T11:07:41.828Z,87.29
2022-12-31T11:10:08.252Z,87.54
2022-12-31T11:12:43.460Z,87.24
2022-12-31T11:15:21.827Z,87.33
2022-12-31T11:18:06.925Z,87.24
2022-12-31T11:20:55.829Z,86.99
2022-12-31T11:23:43.732Z,87.11
2022-12-31T11:26:39.112Z,86.95
2022-12-31T11:29:14.250Z,86.74
2022-12-31T11:31:57.327Z,86.75
2022-12-31T11:34:49.923Z,86.62
2022-12-31T11:37:44.500Z,86.22
2022-12-31T11:40:54.616Z,86.14
2022-12-31T11:43:26.677Z,86.83
2022-12-31T11:45:59.359Z,86.84
2022-12-31T11:48:36.501Z,87.57
2022-12-31T11:51:09.240Z,87.80
2022-12-31T11:54:10.793Z,88.15
2022-12-31T11:56:41.862Z,88.49
2022-12-31T11:59:18.691Z,88.76
2022-12-31T12:01:55.830Z,88.66
2022-12-31T12:04:22.381Z,89.68
2022-12-31T12:06:48.953Z,89.37
2022-12-31T12:09:36.688Z,90.20
2022-12-31T12:12:05.601Z,90.66
2022-12-31T12:14:41.069Z,91.08
2022-12-31T12:17:13.654Z,90.95
2022-12-31T12:19:53.866Z,92.03
2022-12-31T12:22:25.857Z,91.74
2022-12-31T12:25:05.839Z,92.30
2022-12-31T12:27:36.620Z,92.54
2022-12-31T12:30:38.100Z,92.79
2022-12-31T12:33:04.576Z,93.53
2022-12-31T12:35:33.850Z,93.03
2022-12-31T12:38:07.314Z,93.52
2022-12-31T12:40:35.224Z,93.82
2022-12-31T12:43:02.742Z,93.98
2022-12-31T12:45:42.249Z,94.76
2022-12-31T12:48:25.100Z,95.12
2022-12-31T12:50:51.967Z,94.96
2022-12-31T12:53:18.359Z,95.25
2022-12-31T12:55:50.612Z,96.41
2022-12-31T12:58:38.176Z,96.50
2022-12-31T13:01:33.999Z,97.10
2022-12-31T13:04:35.222Z,97.50
2022-12-31T13:07:10.996Z,97.62
2022-12-31T13:10:01.925Z,97.57
2022-12-31T13:13:22.267Z,97.82
2022-12-31T13:15:54.535Z,98.62
2022-12-31T13:18:24.063Z,98.37
2022-12-31T13:21:00.276Z,99.52
2022-12-31T13:23:39.809Z,100.00
2022-12-31T13:26:31.424Z,100.00
2022-12-31T13:29:01.000Z,100.00
2022-12-31T13:31:37.640Z,100.00
2022-12-31T13:34:14.373Z,100.00
2022-12-31T13:36:43.015Z,100.00
2022-12-31T13:39:31.693Z,100.00
2022-12-31T13:42:09.047Z,100.00
2022-12-31T13:44:41.815Z,100.00
2022-12-31T13:47:26.909Z,100.00
2022-12-31T13:50:20.297Z,100.00
2022-12-31T13:52:58.247Z,100.00
2022-12-31T13:55:39.998Z,100.00
2022-12-31T13:58:09.611Z,100.00
2022-12-31T14:00:48.899Z,100.00
2022-12-31T14:03:32.183Z,100.00
2022-12-31T14:06:28.867Z,100.00
2022-12-31T14:08:55.537Z,100.00
2022-12-31T14:11:50.080Z,100.00
2022-12-31T14:14:34.485Z,100.00
2022-12-31T14:17:03.999Z,100.00
2022-12-31T14:19:41.290Z,100.00
2022-12-31T14:22:26.849Z,100.00
2022-12-31T14:24:54.066Z,100.00
2022-12-31T14:27:26.873Z,100.00
2022-12-31T14:29:58.804Z,100.00
2022-12-31T14:32:46.711Z,100.00
2022-12-31T14:35:41.509Z,100.00
2022-12-31T14:38:38.229Z,100.00
2022-12-31T14:41:18.828Z,100.00
2022-12-31T14:43:51.343Z,100.00
2022-12-31T14:46:50.100Z,100.00
2022-12-31T14:49:55.019Z,100.00
2022-12-31T14:52:24.437Z,100.00
2022-12-31T14:54:58.365Z,100.00
2022-12-31T14:57:47.470Z,100.00
2022-12-31T15:00:50.691Z,100.00
2022-12-31T15:03:17.246Z,100.00
2022-12-31T15:05:54.048Z,100.00
2022-12-31T15:08:49.539Z,100.00
2022-12-31T15:11:44.372Z,100.00
2022-12-31T15:14:38.908Z,100.00
2022-12-31T15:17:36.270Z,100.00
2022-12-31T15:20:36.554Z,100.00
2022-12-31T15:23:32.855Z,100.00
2022-12-31T15:26:02.587Z,100.00
2022-12-31T15:28:30.997Z,100.00
2022-12-31T15:31:05.787Z,100.00
2022-12-31T15:33:41.250Z,100.00
2022-12-31T15:36:19.152Z,100.00
2022-12-31T15:38:46.355Z,100.00
2022-12-31T15:41:24.250Z,100.00
2022-12-31T15:43:56.687Z,100.00
2022-12-31T15:46:31.170Z,100.00
2022-12-31T15:49:05.838Z,100.00
2022-12-31T15:52:00.610Z,100.00
2022-12-31T15:54:45.532Z,100.00
2022-12-31T15:57:18.385Z,100.00
2022-12-31T15:59:45.733Z,100.00
2022-12-31T16:02:25.376Z,100.00
2022-12-31T16:04:53.054Z,100.00
2022-12-31T16:07:19.685Z,100.00
2022-12-31T16:10:05.894Z,100.00
2022-12-31T16:12:44.419Z,100.00
2022-12-31T16:15:37.797Z,100.00
2022-12-31T16:18:09.666Z,100.00
2022-12-31T16:20:42.664Z,100.00
2022-12-31T16:23:24.561Z,100.00
2022-12-31T16:25:55.509Z,100.00
2022-12-31T16:28:28.093Z,100.00
2022-12-31T16:31:02.873Z,100.00
2022-12-31T16:33:30.885Z,100.00
2022-12-31T16:36:00.053Z,100.00
2022-12-31T16:38:35.363Z,100.00
2022-12-31T16:41:01.749Z,100.00
2022-12-31T16:43:38.804Z,100.00
2022-12-31T16:46:14.173Z,100.00
2022-12-31T16:48:45.829Z,100.00
2022-12-31T16:51:18.637Z,100.00
2022-12-31T16:53:46.092Z,100.00
2022-12-31T16:56:22.473Z,100.00
2022-12-31T16:58:54.997Z,100.00
2022-12-31T17:01:27.271Z,100.00
2022-12-31T17:03:59.699Z,100.00
2022-12-31T17:06:26.496Z,100.00
2022-12-31T17:08:55.656Z,100.00
2022-12-31T17:11:35.778Z,100.00
2022-12-31T17:14:08.080Z,100.00
2022-12-31T17:17:07.751Z,100.00
2022-12-31T17:19:47.356Z,100.00
2022-12-31T17:22:34.231Z,100.00
2022-12-31T17:25:15.442Z,100.00
2022-12-31T17:27:53.928Z,100.00
2022-12-31T17:30:28.113Z,100.00
2022-12-31T17:33:24.745Z,100.00
2022-12-31T17:35:56.934Z,100.00
2022-12-31T17:38:23.323Z,100.00
2022-12-31T17:41:29.384Z,100.00
2022-12-31T17:43:57.273Z,100.00
2022-12-31T17:46:25.454Z,100.00
2022-12-31T17:48:59.995Z,100.00
2022-12-31T17:51:26.483Z,100.00
2022-12-31T17:53:52.977Z,100.00
2022-12-31T17:56:20.338Z,100.00
2022-12-31T17:58:52.182Z,100.00
2022-12-31T18:01:21.636Z,100.00
2022-12-31T18:03:48.383Z,100.00
2022-12-31T18:06:17.118Z,100.00
2022-12-31T18:08:43.869Z,100.00
2022-12-31T18:11:15.826Z,100.00
2022-12-31T18:13:42.531Z,100.00
2022-12-31T18:16:09.026Z,100.00
2022-12-31T18:18:35.500Z,100.00
2022-12-31T18:21:05.689Z,100.00
2022-12-31T18:23:40.178Z,100.00
2022-12-31T18:26:06.719Z,100.00
2022-12-31T18:28:33.201Z,100.00
2022-12-31T18:30:59.794Z,100.00
2022-12-31T18:33:26.419Z,100.00
2022-12-31T18:36:10.294Z,100.00
2022-12-31T18:38:37.118Z,100.00
2022-12-31T18:41:03.830Z,100.00
2022-12-31T18:43:30.288Z,100.00
2022-12-31T18:45:56.804Z,100.00
2022-12-31T18:48:23.392Z,100.00
2022-12-31T18:50:50.352Z,100.00
2022-12-31T18:53:21.485Z,100.00
2022-12-31T18:55:54.232Z,100.00
2022-12-31T18:58:21.122Z,100.00
2022-12-31T19:00:49.261Z,100.00
2022-12-31T19:03:17.889Z,100.00
2022-12-31T19:05:44.720Z,100.00
2022-12-31T19:08:11.541Z,100.00
2022-12-31T19:10:38.147Z,100.00
2022-12-31T19:13:04.728Z,100.00
2022-12-31T19:15:47.008Z,100.00
2022-12-31T19:18:13.542Z,100.00
2022-12-31T19:20:40.113Z,100.00
2022-12-31T19:23:13.258Z,100.00
2022-12-31T19:25:39.781Z,100.00
2022-12-31T19:28:14.884Z,100.00
2022-12-31T19:30:41.397Z,100.00
2022-12-31T19:33:07.948Z,100.00
2022-12-31T19:35:34.500Z,100.00
2022-12-31T19:38:00.985Z,100.00
2022-12-31T19:40:29.378Z,100.00
2022-12-31T19:42:56.685Z,100.00
2022-12-31T19:45:25.638Z,100.00
2022-12-31T19:47:53.157Z,100.00
2022-12-31T19:50:25.410Z,100.00
2022-12-31T19:52:55.231Z,100.00
2022-12-31T19:55:22.837Z,100.00
2022-12-31T19:57:49.293Z,100.00
2022-12-31T20:00:18.132Z,100.00
2022-12-31T20:02:46.922Z,100.00
2022-12-31T20:05:15.406Z,100.00
2022-12-31T20:07:42.042Z,100.00
2022-12-31T20:10:09.051Z,100.00
2022-12-31T20:12:39.146Z,100.00
2022-12-31T20:15:09.246Z,100.00
2022-12-31T20:17:35.683Z,100.00
2022-12-31T20:20:02.182Z,100.00
2022-12-31T20:22:28.620Z,100.00
2022-12-31T20:24:55.143Z,100.00
2022-12-31T20:27:21.569Z,100.00
2022-12-31T20:29:48.032Z,100.00
2022-12-31T20:32:14.509Z,100.00
2022-12-31T20:34:41.002Z,100.00
2022-12-31T20:37:07.426Z,100.00
2022-12-31T20:39:34.600Z,100.00
2022-12-31T20:42:01.035Z,100.00
2022-12-31T20:44:27.488Z,100.00
2022-12-31T20:46:54.045Z,100.00
2022-12-31T20:49:37.215Z,100.00
2022-12-31T20:52:07.144Z,100.00
2022-12-31T20:54:33.571Z,100.00
2022-12-31T20:57:00.121Z,100.00
2022-12-31T20:59:26.640Z,100.00
2022-12-31T21:02:20.386Z,100.00
2022-12-31T21:04:40.019Z,100.00
2022-12-31T21:07:06.842Z,100.00
2022-12-31T21:09:33.347Z,100.00
2022-12-31T21:11:59.867Z,100.00
2022-12-31T21:14:26.389Z,100.00
2022-12-31T21:16:52.842Z,100.00
2022-12-31T21:19:19.359Z,100.00
2022-12-31T21:21:45.792Z,100.00
2022-12-31T21:24:12.239Z,100.00
2022-12-31T21:26:38.675Z,100.00
2022-12-31T21:29:05.132Z,100.00
2022-12-31T21:31:31.691Z,100.00
2022-12-31T21:33:58.240Z,100.00
2022-12-31T21:36:24.707Z,100.00
2022-12-31T21:38:51.182Z,100.00
2022-12-31T21:41:17.652Z,100.00
2022-12-31T21:43:44.109Z,100.00
2022-12-31T21:46:10.600Z,100.00
2022-12-31T21:48:37.092Z,100.00
2022-12-31T21:51:11.746Z,100.00
2022-12-31T21:53:38.266Z,100.00
2022-12-31T21:56:05.687Z,100.00
2022-12-31T21:58:32.748Z,100.00
2022-12-31T22:01:00.178Z,100.00
2022-12-31T22:03:26.912Z,100.00
2022-12-31T22:05:59.438Z,100.00
2022-12-31T22:08:27.242Z,100.00
2022-12-31T22:10:53.842Z,100.00
2022-12-31T22:13:20.451Z,100.00
2022-12-31T22:15:49.145Z,100.00
2022-12-31T22:18:16.705Z,100.00
2022-12-31T22:20:43.302Z,100.00
2022-12-31T22:23:10.227Z,100.00
2022-12-31T22:25:37.872Z,100.00
2022-12-31T22:28:36.778Z,100.00
2022-12-31T22:30:52.551Z,100.00
2022-12-31T22:33:19.167Z,100.00
2022-12-31T22:35:56.891Z,100.00
2022-12-31T22:38:23.385Z,100.00
2022-12-31T22:40:49.829Z,100.00
2022-12-31T22:43:16.310Z,100.00
2022-12-31T22:45:42.704Z,99.84
2022-12-31T22:48:09.153Z,100.00
2022-12-31T22:50:35.576Z,100.00
2022-12-31T22:53:02.025Z,100.00
2022-12-31T22:55:28.463Z,100.00
2022-12-31T22:57:54.964Z,100.00
2022-12-31T23:00:36.736Z,100.00
2022-12-31T23:03:03.578Z,100.00
2022-12-31T23:05:30.042Z,100.00
2022-12-31T23:07:56.498Z,100.00
2022-12-31T23:10:22.928Z,100.00
2022-12-31T23:12:49.363Z,100.00
2022-12-31T23:15:15.857Z,100.00
2022-12-31T23:17:42.348Z,100.00
2022-12-31T23:20:17.344Z,100.00
2022-12-31T23:22:43.799Z,100.00
2022-12-31T23:25:10.245Z,100.00
2022-12-31T23:27:36.738Z,100.00
2022-12-31T23:30:03.750Z,100.00
2022-12-31T23:32:30.203Z,100.00
2022-12-31T23:34:56.702Z,100.00
2022-12-31T23:37:23.179Z,100.00
2022-12-31T23:39:49.634Z,100.00
2022-12-31T23:42:16.148Z,100.00
2022-12-31T23:44:42.607Z,100.00
2022-12-31T23:47:09.179Z,100.00
2022-12-31T23:49:35.995Z,100.00
2022-12-31T23:52:02.593Z,100.00
2022-12-31T23:54:29.038Z,100.00
2022-12-31T23:56:55.521Z,100.00
2022-12-31T23:59:21.993Z,100.00
